sensor_id;sensor_type;location;lat;lon;timestamp;P1;P2;P0
65556;PMS3003;52200;53.490;14.376;2022-12-26T00:01:06;48.60;37.40;20.00
65556;PMS3003;52200;53.490;14.376;2022-12-26T00:03:34;46.40;38.40;23.00
65556;PMS3003;52200;53.490;14.376;2022-12-26T00:06:00;47.00;35.20;18.20
65556;PMS3003;52200;53.490;14.376;2022-12-26T00:08:25;44.00;37.25;19.00
65556;PMS3003;52200;53.490;14.376;2022-12-26T00:10:51;41.50;37.50;19.00
65556;PMS3003;52200;53.490;14.376;2022-12-26T00:13:16;40.25;32.00;18.00
65556;PMS3003;52200;53.490;14.376;2022-12-26T00:15:42;38.75;33.25;20.25
65556;PMS3003;52200;53.490;14.376;2022-12-26T00:18:07;44.25;36.75;19.00
65556;PMS3003;52200;53.490;14.376;2022-12-26T00:20:33;46.00;34.25;20.50
65556;PMS3003;52200;53.490;14.376;2022-12-26T00:22:58;37.25;28.00;17.75
65556;PMS3003;52200;53.490;14.376;2022-12-26T00:25:24;40.80;34.00;17.80
65556;PMS3003;52200;53.490;14.376;2022-12-26T00:27:50;41.50;33.50;18.00
65556;PMS3003;52200;53.490;14.376;2022-12-26T00:30:15;37.50;30.75;17.50
65556;PMS3003;52200;53.490;14.376;2022-12-26T00:32:41;37.00;33.25;17.75
65556;PMS3003;52200;53.490;14.376;2022-12-26T00:35:06;35.00;33.25;18.25
65556;PMS3003;52200;53.490;14.376;2022-12-26T00:37:32;35.50;34.25;18.00
65556;PMS3003;52200;53.490;14.376;2022-12-26T00:39:57;33.00;30.50;17.00
65556;PMS3003;52200;53.490;14.376;2022-12-26T00:42:23;37.25;35.75;19.25
65556;PMS3003;52200;53.490;14.376;2022-12-26T00:44:48;40.50;37.25;20.00
65556;PMS3003;52200;53.490;14.376;2022-12-26T00:47:13;35.00;32.75;17.75
65556;PMS3003;52200;53.490;14.376;2022-12-26T00:49:39;31.25;31.00;18.00
65556;PMS3003;52200;53.490;14.376;2022-12-26T00:52:04;35.00;33.25;17.50
65556;PMS3003;52200;53.490;14.376;2022-12-26T00:54:30;35.25;34.00;19.00
65556;PMS3003;52200;53.490;14.376;2022-12-26T00:56:55;36.00;34.50;17.50
65556;PMS3003;52200;53.490;14.376;2022-12-26T00:59:21;36.75;35.75;19.00
65556;PMS3003;52200;53.490;14.376;2022-12-26T01:01:46;40.75;36.00;18.00
65556;PMS3003;52200;53.490;14.376;2022-12-26T01:04:11;37.25;31.50;18.00
65556;PMS3003;52200;53.490;14.376;2022-12-26T01:06:37;34.50;33.75;18.00
65556;PMS3003;52200;53.490;14.376;2022-12-26T01:09:02;35.50;32.50;18.25
65556;PMS3003;52200;53.490;14.376;2022-12-26T01:11:28;38.75;35.75;18.50
65556;PMS3003;52200;53.490;14.376;2022-12-26T01:14:10;37.40;34.60;18.00
65556;PMS3003;52200;53.490;14.376;2022-12-26T01:16:40;35.20;34.20;20.20
65556;PMS3003;52200;53.490;14.376;2022-12-26T01:19:07;38.40;35.60;18.60
65556;PMS3003;52200;53.490;14.376;2022-12-26T01:21:34;37.00;34.40;19.00
65556;PMS3003;52200;53.490;14.376;2022-12-26T01:23:59;45.00;38.00;20.25
65556;PMS3003;52200;53.490;14.376;2022-12-26T01:26:25;35.25;34.00;17.50
65556;PMS3003;52200;53.490;14.376;2022-12-26T01:28:52;41.60;38.00;20.00
65556;PMS3003;52200;53.490;14.376;2022-12-26T01:31:19;37.60;31.80;18.40
65556;PMS3003;52200;53.490;14.376;2022-12-26T01:33:46;34.60;32.40;17.60
65556;PMS3003;52200;53.490;14.376;2022-12-26T01:36:12;32.50;30.00;18.00
65556;PMS3003;52200;53.490;14.376;2022-12-26T01:38:38;40.20;34.20;19.00
65556;PMS3003;52200;53.490;14.376;2022-12-26T01:41:03;40.50;36.25;19.25
65556;PMS3003;52200;53.490;14.376;2022-12-26T01:43:54;34.60;31.60;15.60
65556;PMS3003;52200;53.490;14.376;2022-12-26T01:46:38;34.40;31.80;18.60
65556;PMS3003;52200;53.490;14.376;2022-12-26T01:49:52;37.20;33.80;17.80
65556;PMS3003;52200;53.490;14.376;2022-12-26T01:51:59;41.00;37.80;19.40
65556;PMS3003;52200;53.490;14.376;2022-12-26T01:54:34;31.80;31.00;16.60
65556;PMS3003;52200;53.490;14.376;2022-12-26T01:57:03;33.40;32.00;15.00
65556;PMS3003;52200;53.490;14.376;2022-12-26T01:59:31;33.20;32.40;16.20
65556;PMS3003;52200;53.490;14.376;2022-12-26T02:02:00;37.60;30.80;17.80
65556;PMS3003;52200;53.490;14.376;2022-12-26T02:04:27;40.00;35.50;15.75
65556;PMS3003;52200;53.490;14.376;2022-12-26T02:07:15;35.40;33.00;17.60
65556;PMS3003;52200;53.490;14.376;2022-12-26T02:09:41;32.50;29.25;16.00
65556;PMS3003;52200;53.490;14.376;2022-12-26T02:12:15;31.50;29.75;16.25
65556;PMS3003;52200;53.490;14.376;2022-12-26T02:14:51;32.80;31.60;15.40
65556;PMS3003;52200;53.490;14.376;2022-12-26T02:17:16;36.00;35.00;15.50
65556;PMS3003;52200;53.490;14.376;2022-12-26T02:22:51;34.20;31.00;15.40
65556;PMS3003;52200;53.490;14.376;2022-12-26T02:42:26;37.20;33.40;16.00
65556;PMS3003;52200;53.490;14.376;2022-12-26T02:45:27;31.80;30.00;16.60
65556;PMS3003;52200;53.490;14.376;2022-12-26T02:48:43;37.60;34.40;15.80
65556;PMS3003;52200;53.490;14.376;2022-12-26T02:56:54;27.80;27.60;15.40
65556;PMS3003;52200;53.490;14.376;2022-12-26T02:59:48;31.20;28.60;15.00
65556;PMS3003;52200;53.490;14.376;2022-12-26T03:05:39;30.80;28.40;15.20
65556;PMS3003;52200;53.490;14.376;2022-12-26T03:08:36;29.80;29.20;15.00
65556;PMS3003;52200;53.490;14.376;2022-12-26T03:11:27;29.80;26.20;14.60
65556;PMS3003;52200;53.490;14.376;2022-12-26T03:17:29;31.60;30.80;15.40
65556;PMS3003;52200;53.490;14.376;2022-12-26T03:20:05;27.80;26.00;14.60
65556;PMS3003;52200;53.490;14.376;2022-12-26T03:22:42;33.80;27.80;14.00
65556;PMS3003;52200;53.490;14.376;2022-12-26T03:28:09;31.40;28.80;14.80
65556;PMS3003;52200;53.490;14.376;2022-12-26T03:30:35;26.75;25.25;15.00
65556;PMS3003;52200;53.490;14.376;2022-12-26T03:33:13;29.80;24.20;13.00
65556;PMS3003;52200;53.490;14.376;2022-12-26T03:36:00;29.40;28.00;14.00
65556;PMS3003;52200;53.490;14.376;2022-12-26T03:38:43;31.00;29.00;15.80
65556;PMS3003;52200;53.490;14.376;2022-12-26T03:44:43;31.20;24.80;15.00
65556;PMS3003;52200;53.490;14.376;2022-12-26T03:50:39;28.80;23.60;14.00
65556;PMS3003;52200;53.490;14.376;2022-12-26T03:53:43;29.20;28.20;15.00
65556;PMS3003;52200;53.490;14.376;2022-12-26T03:56:34;29.40;24.40;13.80
65556;PMS3003;52200;53.490;14.376;2022-12-26T03:59:27;28.60;26.60;14.00
65556;PMS3003;52200;53.490;14.376;2022-12-26T04:02:16;28.40;25.20;13.00
65556;PMS3003;52200;53.490;14.376;2022-12-26T04:05:03;29.40;25.00;15.00
65556;PMS3003;52200;53.490;14.376;2022-12-26T04:07:51;33.20;27.60;15.00
65556;PMS3003;52200;53.490;14.376;2022-12-26T04:10:40;27.60;23.00;13.80
65556;PMS3003;52200;53.490;14.376;2022-12-26T04:16:36;28.20;23.00;11.40
65556;PMS3003;52200;53.490;14.376;2022-12-26T04:22:03;27.20;24.60;14.60
65556;PMS3003;52200;53.490;14.376;2022-12-26T04:28:00;28.00;26.40;13.80
65556;PMS3003;52200;53.490;14.376;2022-12-26T04:30:48;28.80;21.60;13.40
65556;PMS3003;52200;53.490;14.376;2022-12-26T04:33:48;26.20;24.00;13.00
65556;PMS3003;52200;53.490;14.376;2022-12-26T04:36:41;27.20;25.00;13.00
65556;PMS3003;52200;53.490;14.376;2022-12-26T04:39:31;26.20;23.20;13.20
65556;PMS3003;52200;53.490;14.376;2022-12-26T04:42:17;29.60;26.80;14.00
65556;PMS3003;52200;53.490;14.376;2022-12-26T04:45:04;24.20;21.60;11.20
65556;PMS3003;52200;53.490;14.376;2022-12-26T04:47:31;33.40;26.60;14.60
65556;PMS3003;52200;53.490;14.376;2022-12-26T04:49:57;24.60;23.20;11.80
65556;PMS3003;52200;53.490;14.376;2022-12-26T04:52:40;29.60;23.80;12.20
65556;PMS3003;52200;53.490;14.376;2022-12-26T04:55:28;28.60;21.80;11.60
65556;PMS3003;52200;53.490;14.376;2022-12-26T04:57:55;24.00;20.00;12.80
65556;PMS3003;52200;53.490;14.376;2022-12-26T05:00:21;23.75;22.00;11.00
65556;PMS3003;52200;53.490;14.376;2022-12-26T05:02:49;30.60;23.40;12.00
65556;PMS3003;52200;53.490;14.376;2022-12-26T05:05:37;27.00;19.60;11.00
65556;PMS3003;52200;53.490;14.376;2022-12-26T05:08:25;26.60;18.80;11.00
65556;PMS3003;52200;53.490;14.376;2022-12-26T05:11:13;27.80;22.40;13.40
65556;PMS3003;52200;53.490;14.376;2022-12-26T05:13:38;23.50;19.00;10.75
65556;PMS3003;52200;53.490;14.376;2022-12-26T05:16:03;23.50;23.00;11.00
65556;PMS3003;52200;53.490;14.376;2022-12-26T05:18:48;26.20;21.80;10.80
65556;PMS3003;52200;53.490;14.376;2022-12-26T05:21:32;23.80;20.60;12.00
65556;PMS3003;52200;53.490;14.376;2022-12-26T05:24:15;19.00;16.00;10.40
65556;PMS3003;52200;53.490;14.376;2022-12-26T05:27:04;24.20;21.20;12.00
65556;PMS3003;52200;53.490;14.376;2022-12-26T05:29:52;23.60;19.60;10.00
65556;PMS3003;52200;53.490;14.376;2022-12-26T05:32:17;23.00;19.75;10.50
65556;PMS3003;52200;53.490;14.376;2022-12-26T05:35:01;21.20;17.20;10.20
65556;PMS3003;52200;53.490;14.376;2022-12-26T05:37:27;21.50;19.00;9.25
65556;PMS3003;52200;53.490;14.376;2022-12-26T05:39:52;22.00;18.25;10.00
65556;PMS3003;52200;53.490;14.376;2022-12-26T05:42:17;20.50;17.75;9.00
65556;PMS3003;52200;53.490;14.376;2022-12-26T05:44:43;21.50;16.00;10.00
65556;PMS3003;52200;53.490;14.376;2022-12-26T05:47:08;22.50;16.50;10.00
65556;PMS3003;52200;53.490;14.376;2022-12-26T05:49:34;19.75;17.50;10.00
65556;PMS3003;52200;53.490;14.376;2022-12-26T05:51:59;21.75;18.25;10.00
65556;PMS3003;52200;53.490;14.376;2022-12-26T05:54:25;18.50;14.00;8.00
65556;PMS3003;52200;53.490;14.376;2022-12-26T05:56:50;21.00;16.50;10.00
65556;PMS3003;52200;53.490;14.376;2022-12-26T05:59:17;19.20;15.20;8.80
65556;PMS3003;52200;53.490;14.376;2022-12-26T06:01:42;19.75;17.75;8.50
65556;PMS3003;52200;53.490;14.376;2022-12-26T06:04:08;20.50;16.00;8.00
65556;PMS3003;52200;53.490;14.376;2022-12-26T06:06:33;21.75;18.00;8.75
65556;PMS3003;52200;53.490;14.376;2022-12-26T06:08:59;21.50;20.00;10.00
65556;PMS3003;52200;53.490;14.376;2022-12-26T06:11:24;18.75;15.75;9.00
65556;PMS3003;52200;53.490;14.376;2022-12-26T06:13:51;20.60;15.20;7.40
65556;PMS3003;52200;53.490;14.376;2022-12-26T06:16:16;20.80;15.20;8.00
65556;PMS3003;52200;53.490;14.376;2022-12-26T06:18:42;17.00;12.40;7.60
65556;PMS3003;52200;53.490;14.376;2022-12-26T06:21:12;15.00;11.50;5.75
65556;PMS3003;52200;53.490;14.376;2022-12-26T06:23:39;16.80;13.80;7.00
65556;PMS3003;52200;53.490;14.376;2022-12-26T06:26:05;17.20;13.80;8.00
65556;PMS3003;52200;53.490;14.376;2022-12-26T06:28:34;16.20;13.00;7.40
65556;PMS3003;52200;53.490;14.376;2022-12-26T06:31:04;16.60;11.80;7.40
65556;PMS3003;52200;53.490;14.376;2022-12-26T06:33:30;16.00;10.80;5.00
65556;PMS3003;52200;53.490;14.376;2022-12-26T06:36:03;13.80;11.60;5.00
65556;PMS3003;52200;53.490;14.376;2022-12-26T06:38:48;15.80;13.80;6.40
65556;PMS3003;52200;53.490;14.376;2022-12-26T06:41:15;14.60;11.20;4.80
65556;PMS3003;52200;53.490;14.376;2022-12-26T06:43:42;14.60;10.80;5.00
65556;PMS3003;52200;53.490;14.376;2022-12-26T06:46:09;16.40;13.80;5.00
65556;PMS3003;52200;53.490;14.376;2022-12-26T06:48:37;13.80;10.60;5.00
65556;PMS3003;52200;53.490;14.376;2022-12-26T06:51:10;14.00;11.25;5.00
65556;PMS3003;52200;53.490;14.376;2022-12-26T06:53:38;12.40;9.00;4.60
65556;PMS3003;52200;53.490;14.376;2022-12-26T06:56:04;15.80;10.00;5.20
65556;PMS3003;52200;53.490;14.376;2022-12-26T06:58:35;16.00;11.00;4.20
65556;PMS3003;52200;53.490;14.376;2022-12-26T07:01:04;14.00;10.60;4.20
65556;PMS3003;52200;53.490;14.376;2022-12-26T07:03:34;12.20;9.00;5.00
65556;PMS3003;52200;53.490;14.376;2022-12-26T07:06:03;14.00;8.25;5.00
65556;PMS3003;52200;53.490;14.376;2022-12-26T07:08:30;12.80;8.00;3.60
65556;PMS3003;52200;53.490;14.376;2022-12-26T07:10:56;13.40;8.20;4.00
65556;PMS3003;52200;53.490;14.376;2022-12-26T07:13:21;10.25;4.75;3.00
65556;PMS3003;52200;53.490;14.376;2022-12-26T07:15:47;11.50;8.50;3.00
65556;PMS3003;52200;53.490;14.376;2022-12-26T07:18:12;10.00;7.00;3.50
65556;PMS3003;52200;53.490;14.376;2022-12-26T07:20:38;11.75;8.00;3.00
65556;PMS3003;52200;53.490;14.376;2022-12-26T07:23:03;11.00;5.00;3.00
65556;PMS3003;52200;53.490;14.376;2022-12-26T07:25:28;11.00;7.00;3.50
65556;PMS3003;52200;53.490;14.376;2022-12-26T07:27:54;10.00;5.00;3.00
65556;PMS3003;52200;53.490;14.376;2022-12-26T07:30:19;10.00;6.00;3.25
65556;PMS3003;52200;53.490;14.376;2022-12-26T07:32:45;13.25;7.75;3.00
65556;PMS3003;52200;53.490;14.376;2022-12-26T07:35:10;10.00;5.00;3.00
65556;PMS3003;52200;53.490;14.376;2022-12-26T07:37:36;12.00;7.00;2.25
65556;PMS3003;52200;53.490;14.376;2022-12-26T07:40:01;10.25;5.00;3.25
65556;PMS3003;52200;53.490;14.376;2022-12-26T07:42:27;9.60;5.80;3.00
65556;PMS3003;52200;53.490;14.376;2022-12-26T07:44:52;9.00;5.25;2.00
65556;PMS3003;52200;53.490;14.376;2022-12-26T07:47:18;10.75;6.00;3.00
65556;PMS3003;52200;53.490;14.376;2022-12-26T07:49:44;9.00;5.00;2.00
65556;PMS3003;52200;53.490;14.376;2022-12-26T07:52:09;8.50;4.00;2.00
65556;PMS3003;52200;53.490;14.376;2022-12-26T07:54:34;8.75;3.25;1.75
65556;PMS3003;52200;53.490;14.376;2022-12-26T07:57:00;9.25;6.50;2.75
65556;PMS3003;52200;53.490;14.376;2022-12-26T07:59:25;9.75;4.50;3.00
65556;PMS3003;52200;53.490;14.376;2022-12-26T08:01:51;10.00;5.00;2.00
65556;PMS3003;52200;53.490;14.376;2022-12-26T08:04:16;11.00;6.50;2.50
65556;PMS3003;52200;53.490;14.376;2022-12-26T08:06:42;8.00;3.50;2.00
65556;PMS3003;52200;53.490;14.376;2022-12-26T08:09:13;7.80;3.40;2.00
65556;PMS3003;52200;53.490;14.376;2022-12-26T08:11:42;7.00;3.20;2.00
65556;PMS3003;52200;53.490;14.376;2022-12-26T08:14:12;7.20;3.00;1.00
65556;PMS3003;52200;53.490;14.376;2022-12-26T08:16:40;6.00;2.00;1.00
65556;PMS3003;52200;53.490;14.376;2022-12-26T08:19:06;6.00;2.40;1.00
65556;PMS3003;52200;53.490;14.376;2022-12-26T08:21:31;5.00;2.00;1.00
65556;PMS3003;52200;53.490;14.376;2022-12-26T08:23:57;5.00;2.00;1.00
65556;PMS3003;52200;53.490;14.376;2022-12-26T08:26:22;4.75;1.75;0.75
65556;PMS3003;52200;53.490;14.376;2022-12-26T08:28:49;5.00;2.00;0.00
65556;PMS3003;52200;53.490;14.376;2022-12-26T08:31:16;6.20;1.00;0.60
65556;PMS3003;52200;53.490;14.376;2022-12-26T08:33:42;4.20;1.00;0.00
65556;PMS3003;52200;53.490;14.376;2022-12-26T08:36:08;7.00;2.75;1.00
65556;PMS3003;52200;53.490;14.376;2022-12-26T08:38:36;6.20;2.20;1.00
65556;PMS3003;52200;53.490;14.376;2022-12-26T08:41:03;5.80;2.80;0.60
65556;PMS3003;52200;53.490;14.376;2022-12-26T08:43:29;5.60;2.00;1.00
65556;PMS3003;52200;53.490;14.376;2022-12-26T08:45:59;7.50;3.00;1.00
65556;PMS3003;52200;53.490;14.376;2022-12-26T08:48:35;4.60;1.80;1.00
65556;PMS3003;52200;53.490;14.376;2022-12-26T08:51:06;5.00;2.00;0.60
65556;PMS3003;52200;53.490;14.376;2022-12-26T08:53:34;5.00;2.00;1.00
65556;PMS3003;52200;53.490;14.376;2022-12-26T08:56:04;7.00;2.00;1.00
65556;PMS3003;52200;53.490;14.376;2022-12-26T08:58:31;7.60;2.60;0.60
65556;PMS3003;52200;53.490;14.376;2022-12-26T09:01:07;5.60;2.20;0.00
65556;PMS3003;52200;53.490;14.376;2022-12-26T09:03:34;7.00;3.00;1.00
65556;PMS3003;52200;53.490;14.376;2022-12-26T09:06:00;5.75;2.25;1.00
65556;PMS3003;52200;53.490;14.376;2022-12-26T09:08:27;8.00;4.00;1.40
65556;PMS3003;52200;53.490;14.376;2022-12-26T09:10:54;5.00;2.00;1.00
65556;PMS3003;52200;53.490;14.376;2022-12-26T09:13:21;6.60;2.00;1.00
65556;PMS3003;52200;53.490;14.376;2022-12-26T09:15:47;5.00;2.00;1.00
65556;PMS3003;52200;53.490;14.376;2022-12-26T09:18:12;5.50;2.00;1.00
65556;PMS3003;52200;53.490;14.376;2022-12-26T09:20:38;5.00;1.25;1.00
65556;PMS3003;52200;53.490;14.376;2022-12-26T09:23:03;8.00;3.75;1.00
65556;PMS3003;52200;53.490;14.376;2022-12-26T09:25:29;5.25;2.50;1.00
65556;PMS3003;52200;53.490;14.376;2022-12-26T09:27:54;5.00;2.00;1.00
65556;PMS3003;52200;53.490;14.376;2022-12-26T09:30:20;7.50;3.00;1.00
65556;PMS3003;52200;53.490;14.376;2022-12-26T09:32:47;8.00;3.60;1.20
65556;PMS3003;52200;53.490;14.376;2022-12-26T09:35:13;6.60;2.00;0.20
65556;PMS3003;52200;53.490;14.376;2022-12-26T09:37:38;7.60;3.00;1.20
65556;PMS3003;52200;53.490;14.376;2022-12-26T09:40:04;5.75;2.50;1.00
65556;PMS3003;52200;53.490;14.376;2022-12-26T09:45:15;6.40;2.40;1.00
65556;PMS3003;52200;53.490;14.376;2022-12-26T09:50:43;9.00;2.60;1.00
65556;PMS3003;52200;53.490;14.376;2022-12-26T09:53:16;5.40;2.00;1.80
65556;PMS3003;52200;53.490;14.376;2022-12-26T09:55:49;5.80;2.20;1.60
65556;PMS3003;52200;53.490;14.376;2022-12-26T09:58:28;7.00;2.40;1.00
65556;PMS3003;52200;53.490;14.376;2022-12-26T10:01:02;8.40;3.40;1.00
65556;PMS3003;52200;53.490;14.376;2022-12-26T10:03:45;7.00;3.00;2.00
65556;PMS3003;52200;53.490;14.376;2022-12-26T10:06:17;6.80;3.00;1.60
65556;PMS3003;52200;53.490;14.376;2022-12-26T10:09:29;8.00;3.60;1.00
65556;PMS3003;52200;53.490;14.376;2022-12-26T10:14:42;7.20;3.40;1.20
65556;PMS3003;52200;53.490;14.376;2022-12-26T10:25:41;9.00;4.80;2.00
65556;PMS3003;52200;53.490;14.376;2022-12-26T10:31:07;8.40;5.00;2.00
65556;PMS3003;52200;53.490;14.376;2022-12-26T10:33:47;9.00;5.00;1.80
65556;PMS3003;52200;53.490;14.376;2022-12-26T10:36:26;7.80;4.00;1.00
65556;PMS3003;52200;53.490;14.376;2022-12-26T10:38:57;8.00;4.00;2.60
65556;PMS3003;52200;53.490;14.376;2022-12-26T10:41:26;7.80;4.20;2.00
65556;PMS3003;52200;53.490;14.376;2022-12-26T10:44:08;6.40;3.00;1.00
65556;PMS3003;52200;53.490;14.376;2022-12-26T10:49:15;9.20;5.00;3.00
65556;PMS3003;52200;53.490;14.376;2022-12-26T10:51:44;9.00;3.60;2.20
65556;PMS3003;52200;53.490;14.376;2022-12-26T10:54:11;6.00;2.50;1.50
65556;PMS3003;52200;53.490;14.376;2022-12-26T10:56:42;7.20;4.00;2.00
65556;PMS3003;52200;53.490;14.376;2022-12-26T10:59:13;7.00;3.40;1.20
65556;PMS3003;52200;53.490;14.376;2022-12-26T11:01:53;8.20;4.00;1.00
65556;PMS3003;52200;53.490;14.376;2022-12-26T11:04:20;7.50;4.00;1.00
65556;PMS3003;52200;53.490;14.376;2022-12-26T11:06:48;7.20;4.00;1.00
65556;PMS3003;52200;53.490;14.376;2022-12-26T11:12:18;7.60;2.00;1.00
65556;PMS3003;52200;53.490;14.376;2022-12-26T11:14:46;7.00;3.00;1.20
65556;PMS3003;52200;53.490;14.376;2022-12-26T11:17:22;4.40;1.20;0.20
65556;PMS3003;52200;53.490;14.376;2022-12-26T11:19:48;6.80;2.80;1.00
65556;PMS3003;52200;53.490;14.376;2022-12-26T11:27:36;6.20;3.00;1.40
65556;PMS3003;52200;53.490;14.376;2022-12-26T11:32:38;6.00;2.60;1.00
65556;PMS3003;52200;53.490;14.376;2022-12-26T11:35:05;6.00;3.20;1.00
65556;PMS3003;52200;53.490;14.376;2022-12-26T11:37:41;6.00;2.60;1.00
65556;PMS3003;52200;53.490;14.376;2022-12-26T11:40:18;7.20;3.00;1.00
65556;PMS3003;52200;53.490;14.376;2022-12-26T11:42:49;5.00;3.00;1.00
65556;PMS3003;52200;53.490;14.376;2022-12-26T11:45:22;6.80;4.00;1.00
65556;PMS3003;52200;53.490;14.376;2022-12-26T11:47:50;6.80;3.00;1.00
65556;PMS3003;52200;53.490;14.376;2022-12-26T11:50:19;6.40;3.00;2.00
65556;PMS3003;52200;53.490;14.376;2022-12-26T12:00:32;8.00;4.00;2.00
65556;PMS3003;52200;53.490;14.376;2022-12-26T12:02:59;7.00;4.00;1.60
65556;PMS3003;52200;53.490;14.376;2022-12-26T12:08:18;8.80;5.40;3.00
65556;PMS3003;52200;53.490;14.376;2022-12-26T12:16:44;8.60;4.60;2.00
65556;PMS3003;52200;53.490;14.376;2022-12-26T12:27:55;9.40;5.20;2.40
65556;PMS3003;52200;53.490;14.376;2022-12-26T12:36:06;13.20;9.00;5.00
65556;PMS3003;52200;53.490;14.376;2022-12-26T12:41:28;10.00;5.60;3.00
65556;PMS3003;52200;53.490;14.376;2022-12-26T12:49:35;14.80;10.80;4.60
65556;PMS3003;52200;53.490;14.376;2022-12-26T12:55:05;15.80;10.60;5.60
65556;PMS3003;52200;53.490;14.376;2022-12-26T13:00:58;12.00;8.40;4.60
65556;PMS3003;52200;53.490;14.376;2022-12-26T13:06:30;15.60;9.80;4.60
65556;PMS3003;52200;53.490;14.376;2022-12-26T13:09:09;11.40;8.00;4.40
65556;PMS3003;52200;53.490;14.376;2022-12-26T13:11:43;12.80;8.40;3.80
65556;PMS3003;52200;53.490;14.376;2022-12-26T13:14:35;10.00;6.60;3.00
65556;PMS3003;52200;53.490;14.376;2022-12-26T13:17:16;11.20;7.20;3.00
65556;PMS3003;52200;53.490;14.376;2022-12-26T13:20:06;9.40;5.00;3.00
65556;PMS3003;52200;53.490;14.376;2022-12-26T13:22:42;13.20;8.60;5.00
65556;PMS3003;52200;53.490;14.376;2022-12-26T13:25:47;10.20;5.80;3.80
65556;PMS3003;52200;53.490;14.376;2022-12-26T13:28:24;11.20;7.20;3.00
65556;PMS3003;52200;53.490;14.376;2022-12-26T13:30:54;12.00;7.80;4.00
65556;PMS3003;52200;53.490;14.376;2022-12-26T13:33:20;12.40;8.60;2.60
65556;PMS3003;52200;53.490;14.376;2022-12-26T13:36:00;12.80;9.00;4.00
65556;PMS3003;52200;53.490;14.376;2022-12-26T13:41:20;12.00;8.60;4.00
65556;PMS3003;52200;53.490;14.376;2022-12-26T13:44:25;9.80;6.40;3.00
65556;PMS3003;52200;53.490;14.376;2022-12-26T13:49:27;14.50;9.75;5.00
65556;PMS3003;52200;53.490;14.376;2022-12-26T13:57:41;11.40;6.00;3.00
65556;PMS3003;52200;53.490;14.376;2022-12-26T14:00:21;10.20;6.20;3.20
65556;PMS3003;52200;53.490;14.376;2022-12-26T14:16:48;11.80;7.60;3.60
65556;PMS3003;52200;53.490;14.376;2022-12-26T14:25:07;12.00;7.60;4.00
65556;PMS3003;52200;53.490;14.376;2022-12-26T14:40:04;11.00;6.60;3.00
65556;PMS3003;52200;53.490;14.376;2022-12-26T14:43:02;12.40;7.80;2.80
65556;PMS3003;52200;53.490;14.376;2022-12-26T14:45:37;12.00;8.00;3.00
65556;PMS3003;52200;53.490;14.376;2022-12-26T14:53:26;16.20;11.20;6.80
65556;PMS3003;52200;53.490;14.376;2022-12-26T14:58:44;16.60;10.40;5.40
65556;PMS3003;52200;53.490;14.376;2022-12-26T15:03:55;11.00;8.00;3.00
65556;PMS3003;52200;53.490;14.376;2022-12-26T15:07:10;15.40;8.20;4.00
65556;PMS3003;52200;53.490;14.376;2022-12-26T15:17:43;14.00;7.60;3.00
65556;PMS3003;52200;53.490;14.376;2022-12-26T15:31:40;11.00;7.00;4.00
65556;PMS3003;52200;53.490;14.376;2022-12-26T15:39:46;16.40;10.40;4.00
65556;PMS3003;52200;53.490;14.376;2022-12-26T15:47:35;14.00;9.80;5.60
65556;PMS3003;52200;53.490;14.376;2022-12-26T15:58:05;16.40;11.40;7.00
65556;PMS3003;52200;53.490;14.376;2022-12-26T16:00:50;25.60;20.00;11.80
65556;PMS3003;52200;53.490;14.376;2022-12-26T16:11:53;17.60;13.80;5.20
65556;PMS3003;52200;53.490;14.376;2022-12-26T16:14:25;16.60;11.00;6.40
65556;PMS3003;52200;53.490;14.376;2022-12-26T16:17:18;24.00;20.80;10.60
65556;PMS3003;52200;53.490;14.376;2022-12-26T16:19:45;18.80;14.00;8.00
65556;PMS3003;52200;53.490;14.376;2022-12-26T16:22:29;19.60;15.40;8.00
65556;PMS3003;52200;53.490;14.376;2022-12-26T16:25:07;19.60;12.20;5.20
65556;PMS3003;52200;53.490;14.376;2022-12-26T16:27:36;19.20;14.60;8.40
65556;PMS3003;52200;53.490;14.376;2022-12-26T16:30:04;21.60;15.40;9.00
65556;PMS3003;52200;53.490;14.376;2022-12-26T16:32:35;21.40;15.00;8.00
65556;PMS3003;52200;53.490;14.376;2022-12-26T16:35:03;21.40;17.40;9.80
65556;PMS3003;52200;53.490;14.376;2022-12-26T16:37:30;17.80;14.00;7.40
65556;PMS3003;52200;53.490;14.376;2022-12-26T16:40:57;19.20;15.00;6.80
65556;PMS3003;52200;53.490;14.376;2022-12-26T16:43:04;16.40;12.80;7.80
65556;PMS3003;52200;53.490;14.376;2022-12-26T16:45:47;18.40;12.40;7.60
65556;PMS3003;52200;53.490;14.376;2022-12-26T16:48:14;21.60;16.20;8.20
65556;PMS3003;52200;53.490;14.376;2022-12-26T16:50:56;17.80;13.20;6.60
65556;PMS3003;52200;53.490;14.376;2022-12-26T16:58:54;14.00;10.00;5.20
65556;PMS3003;52200;53.490;14.376;2022-12-26T17:01:41;19.80;13.80;6.80
65556;PMS3003;52200;53.490;14.376;2022-12-26T17:04:18;16.20;10.80;7.80
65556;PMS3003;52200;53.490;14.376;2022-12-26T17:06:48;16.60;11.80;7.00
65556;PMS3003;52200;53.490;14.376;2022-12-26T17:09:25;15.40;11.40;6.20
65556;PMS3003;52200;53.490;14.376;2022-12-26T17:12:00;15.80;12.00;7.00
65556;PMS3003;52200;53.490;14.376;2022-12-26T17:14:31;17.40;10.60;5.00
65556;PMS3003;52200;53.490;14.376;2022-12-26T17:17:01;19.40;12.80;8.00
65556;PMS3003;52200;53.490;14.376;2022-12-26T17:19:47;16.20;12.20;7.20
65556;PMS3003;52200;53.490;14.376;2022-12-26T17:22:28;15.20;10.00;5.60
65556;PMS3003;52200;53.490;14.376;2022-12-26T17:25:37;16.20;9.20;5.00
65556;PMS3003;52200;53.490;14.376;2022-12-26T17:30:45;15.60;10.00;4.00
65556;PMS3003;52200;53.490;14.376;2022-12-26T17:35:41;14.20;9.20;5.00
65556;PMS3003;52200;53.490;14.376;2022-12-26T17:38:20;14.00;10.00;4.20
65556;PMS3003;52200;53.490;14.376;2022-12-26T17:40:52;12.00;7.60;3.20
65556;PMS3003;52200;53.490;14.376;2022-12-26T17:43:28;11.20;8.00;4.00
65556;PMS3003;52200;53.490;14.376;2022-12-26T17:46:01;12.80;8.00;4.00
65556;PMS3003;52200;53.490;14.376;2022-12-26T17:48:28;15.20;9.60;3.80
65556;PMS3003;52200;53.490;14.376;2022-12-26T17:50:58;11.00;7.00;3.00
65556;PMS3003;52200;53.490;14.376;2022-12-26T17:53:29;14.00;8.60;4.00
65556;PMS3003;52200;53.490;14.376;2022-12-26T17:56:00;13.40;7.80;3.80
65556;PMS3003;52200;53.490;14.376;2022-12-26T17:58:28;15.20;9.40;4.00
65556;PMS3003;52200;53.490;14.376;2022-12-26T18:00:55;14.20;8.80;4.20
65556;PMS3003;52200;53.490;14.376;2022-12-26T18:03:20;9.60;4.80;3.20
65556;PMS3003;52200;53.490;14.376;2022-12-26T18:05:47;9.00;4.80;3.00
65556;PMS3003;52200;53.490;14.376;2022-12-26T18:08:35;9.75;5.50;3.00
65556;PMS3003;52200;53.490;14.376;2022-12-26T18:11:05;9.80;4.60;2.00
65556;PMS3003;52200;53.490;14.376;2022-12-26T18:13:35;8.00;3.80;2.00
65556;PMS3003;52200;53.490;14.376;2022-12-26T18:16:01;10.40;7.00;2.80
65556;PMS3003;52200;53.490;14.376;2022-12-26T18:21:04;7.00;3.00;1.40
65556;PMS3003;52200;53.490;14.376;2022-12-26T18:23:32;7.00;2.00;1.40
65556;PMS3003;52200;53.490;14.376;2022-12-26T18:26:05;8.00;4.00;2.00
65556;PMS3003;52200;53.490;14.376;2022-12-26T18:28:41;7.00;3.00;1.00